sensor_id;sensor_type;location;lat;lon;timestamp;pressure;altitude;pressure_sealevel;temperature;humidity
10618;BME280;5356;43.526;26.534;2023-03-14T00:01:18;99429.66;;;4.88;54.08
10618;BME280;5356;43.526;26.534;2023-03-14T00:03:45;99427.53;;;4.83;54.24
10618;BME280;5356;43.526;26.534;2023-03-14T00:06:12;99426.94;;;4.81;54.63
10618;BME280;5356;43.526;26.534;2023-03-14T00:08:38;99424.91;;;4.83;54.41
10618;BME280;5356;43.526;26.534;2023-03-14T00:11:16;99421.97;;;4.55;54.44
10618;BME280;5356;43.526;26.534;2023-03-14T00:13:42;99423.75;;;4.32;55.12
10618;BME280;5356;43.526;26.534;2023-03-14T00:16:10;99421.13;;;4.32;55.31
10618;BME280;5356;43.526;26.534;2023-03-14T00:18:36;99424.94;;;4.29;55.53
10618;BME280;5356;43.526;26.534;2023-03-14T00:21:03;99420.81;;;4.26;55.99
10618;BME280;5356;43.526;26.534;2023-03-14T00:23:31;99427.91;;;4.26;55.67
10618;BME280;5356;43.526;26.534;2023-03-14T00:26:04;99426.75;;;4.28;56.43
10618;BME280;5356;43.526;26.534;2023-03-14T00:28:30;99426.00;;;4.43;55.69
10618;BME280;5356;43.526;26.534;2023-03-14T00:30:55;99430.59;;;4.49;55.50
10618;BME280;5356;43.526;26.534;2023-03-14T00:33:21;99426.94;;;4.50;55.16
10618;BME280;5356;43.526;26.534;2023-03-14T00:35:57;99428.59;;;4.51;54.96
10618;BME280;5356;43.526;26.534;2023-03-14T00:38:24;99432.22;;;4.50;55.57
10618;BME280;5356;43.526;26.534;2023-03-14T00:40:52;99427.75;;;4.59;55.18
10618;BME280;5356;43.526;26.534;2023-03-14T00:43:18;99431.31;;;4.66;55.27
10618;BME280;5356;43.526;26.534;2023-03-14T00:45:47;99425.31;;;4.72;55.37
10618;BME280;5356;43.526;26.534;2023-03-14T00:48:12;99427.44;;;4.77;55.22
10618;BME280;5356;43.526;26.534;2023-03-14T00:50:38;99409.63;;;4.79;55.08
10618;BME280;5356;43.526;26.534;2023-03-14T00:53:04;99417.00;;;4.83;55.02
10618;BME280;5356;43.526;26.534;2023-03-14T00:55:30;99417.81;;;4.84;55.21
10618;BME280;5356;43.526;26.534;2023-03-14T00:57:55;99412.16;;;4.87;55.08
10618;BME280;5356;43.526;26.534;2023-03-14T01:00:21;99414.19;;;4.85;54.85
10618;BME280;5356;43.526;26.534;2023-03-14T01:02:46;99405.72;;;4.89;55.07
10618;BME280;5356;43.526;26.534;2023-03-14T01:05:11;99414.47;;;4.90;55.03
10618;BME280;5356;43.526;26.534;2023-03-14T01:07:37;99411.34;;;4.86;54.76
10618;BME280;5356;43.526;26.534;2023-03-14T01:10:04;99405.63;;;4.83;55.21
10618;BME280;5356;43.526;26.534;2023-03-14T01:12:30;99409.25;;;4.82;54.96
10618;BME280;5356;43.526;26.534;2023-03-14T01:14:56;99402.31;;;4.81;55.50
10618;BME280;5356;43.526;26.534;2023-03-14T01:17:21;99399.69;;;4.81;55.29
10618;BME280;5356;43.526;26.534;2023-03-14T01:19:47;99411.09;;;4.81;55.68
10618;BME280;5356;43.526;26.534;2023-03-14T01:22:13;99401.69;;;4.79;55.30
10618;BME280;5356;43.526;26.534;2023-03-14T01:24:38;99397.31;;;4.71;55.24
10618;BME280;5356;43.526;26.534;2023-03-14T01:27:04;99389.53;;;4.69;55.72
10618;BME280;5356;43.526;26.534;2023-03-14T01:29:30;99389.13;;;4.58;55.76
10618;BME280;5356;43.526;26.534;2023-03-14T01:31:56;99383.09;;;4.49;55.89
10618;BME280;5356;43.526;26.534;2023-03-14T01:34:22;99377.06;;;4.40;55.25
10618;BME280;5356;43.526;26.534;2023-03-14T01:36:47;99373.34;;;4.26;56.12
10618;BME280;5356;43.526;26.534;2023-03-14T01:39:13;99374.88;;;4.21;55.96
10618;BME280;5356;43.526;26.534;2023-03-14T01:41:39;99362.56;;;4.13;56.16
10618;BME280;5356;43.526;26.534;2023-03-14T01:44:08;99351.53;;;4.10;56.76
10618;BME280;5356;43.526;26.534;2023-03-14T01:46:41;99347.09;;;4.10;57.00
10618;BME280;5356;43.526;26.534;2023-03-14T01:54:34;99335.41;;;4.04;57.02
10618;BME280;5356;43.526;26.534;2023-03-14T01:59:32;99328.72;;;4.02;57.38
10618;BME280;5356;43.526;26.534;2023-03-14T02:01:58;99324.88;;;4.04;57.17
10618;BME280;5356;43.526;26.534;2023-03-14T02:04:28;99318.78;;;4.04;57.44
10618;BME280;5356;43.526;26.534;2023-03-14T02:09:39;99321.22;;;3.82;58.53
10618;BME280;5356;43.526;26.534;2023-03-14T02:12:09;99323.94;;;3.66;59.47
10618;BME280;5356;43.526;26.534;2023-03-14T02:14:37;99315.63;;;3.46;60.25
10618;BME280;5356;43.526;26.534;2023-03-14T02:17:04;99321.25;;;3.35;60.47
10618;BME280;5356;43.526;26.534;2023-03-14T02:22:16;99327.03;;;3.30;61.98
10618;BME280;5356;43.526;26.534;2023-03-14T02:27:42;99331.78;;;3.43;62.78
10618;BME280;5356;43.526;26.534;2023-03-14T02:30:12;99337.50;;;3.47;62.29
10618;BME280;5356;43.526;26.534;2023-03-14T02:32:41;99340.63;;;3.50;62.19
10618;BME280;5356;43.526;26.534;2023-03-14T02:35:15;99340.28;;;3.53;62.22
10618;BME280;5356;43.526;26.534;2023-03-14T02:37:49;99337.94;;;3.58;62.12
10618;BME280;5356;43.526;26.534;2023-03-14T02:40:16;99334.63;;;3.65;62.04
10618;BME280;5356;43.526;26.534;2023-03-14T02:42:41;99330.50;;;3.70;62.16
10618;BME280;5356;43.526;26.534;2023-03-14T02:47:42;99336.88;;;3.76;61.43
10618;BME280;5356;43.526;26.534;2023-03-14T02:50:12;99339.22;;;3.71;61.97
10618;BME280;5356;43.526;26.534;2023-03-14T02:52:39;99323.09;;;3.74;61.32
10618;BME280;5356;43.526;26.534;2023-03-14T02:55:05;99326.34;;;3.76;61.22
10618;BME280;5356;43.526;26.534;2023-03-14T02:57:30;99327.66;;;3.80;61.05
10618;BME280;5356;43.526;26.534;2023-03-14T03:00:00;99327.00;;;3.78;61.13
10618;BME280;5356;43.526;26.534;2023-03-14T03:02:27;99330.91;;;3.82;61.04
10618;BME280;5356;43.526;26.534;2023-03-14T03:04:52;99331.06;;;3.89;60.69
10618;BME280;5356;43.526;26.534;2023-03-14T03:07:18;99330.72;;;3.92;60.61
10618;BME280;5356;43.526;26.534;2023-03-14T03:09:44;99326.28;;;3.92;60.59
10618;BME280;5356;43.526;26.534;2023-03-14T03:12:10;99319.84;;;3.95;60.43
10618;BME280;5356;43.526;26.534;2023-03-14T03:14:35;99327.41;;;3.98;60.71
10618;BME280;5356;43.526;26.534;2023-03-14T03:17:03;99333.84;;;3.95;60.28
10618;BME280;5356;43.526;26.534;2023-03-14T03:19:28;99342.09;;;3.92;59.68
10618;BME280;5356;43.526;26.534;2023-03-14T03:21:54;99355.75;;;3.88;60.22
10618;BME280;5356;43.526;26.534;2023-03-14T03:24:19;99347.53;;;3.91;60.08
10618;BME280;5356;43.526;26.534;2023-03-14T03:26:45;99344.03;;;3.98;60.12
10618;BME280;5356;43.526;26.534;2023-03-14T03:29:10;99346.31;;;4.01;59.84
10618;BME280;5356;43.526;26.534;2023-03-14T03:31:39;99329.69;;;4.01;59.83
10618;BME280;5356;43.526;26.534;2023-03-14T03:34:04;99328.06;;;4.00;59.66
10618;BME280;5356;43.526;26.534;2023-03-14T03:36:30;99333.00;;;3.95;60.05
10618;BME280;5356;43.526;26.534;2023-03-14T03:38:55;99332.00;;;3.96;59.87
10618;BME280;5356;43.526;26.534;2023-03-14T03:41:21;99333.00;;;3.95;59.78
10618;BME280;5356;43.526;26.534;2023-03-14T03:43:46;99331.41;;;3.86;59.46
10618;BME280;5356;43.526;26.534;2023-03-14T03:46:11;99325.56;;;3.67;60.12
10618;BME280;5356;43.526;26.534;2023-03-14T03:48:37;99329.22;;;3.66;60.38
10618;BME280;5356;43.526;26.534;2023-03-14T03:51:03;99334.94;;;3.70;60.05
10618;BME280;5356;43.526;26.534;2023-03-14T03:53:28;99328.06;;;3.60;59.97
10618;BME280;5356;43.526;26.534;2023-03-14T03:55:54;99326.94;;;3.55;59.99
10618;BME280;5356;43.526;26.534;2023-03-14T03:58:19;99328.97;;;3.36;60.21
10618;BME280;5356;43.526;26.534;2023-03-14T04:00:45;99334.66;;;3.17;60.96
10618;BME280;5356;43.526;26.534;2023-03-14T04:03:10;99322.66;;;3.14;61.62
10618;BME280;5356;43.526;26.534;2023-03-14T04:05:36;99322.13;;;3.11;61.53
10618;BME280;5356;43.526;26.534;2023-03-14T04:08:02;99323.78;;;3.12;62.02
10618;BME280;5356;43.526;26.534;2023-03-14T04:10:28;99326.06;;;3.23;61.77
10618;BME280;5356;43.526;26.534;2023-03-14T04:12:53;99323.91;;;3.35;61.54
10618;BME280;5356;43.526;26.534;2023-03-14T04:15:19;99333.59;;;3.34;61.40
10618;BME280;5356;43.526;26.534;2023-03-14T04:17:44;99322.75;;;3.29;61.52
10618;BME280;5356;43.526;26.534;2023-03-14T04:20:10;99321.94;;;3.29;61.68
10618;BME280;5356;43.526;26.534;2023-03-14T04:22:37;99329.97;;;3.35;62.05
10618;BME280;5356;43.526;26.534;2023-03-14T04:25:03;99323.56;;;3.38;61.89
10618;BME280;5356;43.526;26.534;2023-03-14T04:27:29;99321.06;;;3.45;61.92
10618;BME280;5356;43.526;26.534;2023-03-14T04:29:54;99318.91;;;3.48;61.77
10618;BME280;5356;43.526;26.534;2023-03-14T04:32:20;99316.75;;;3.52;61.91
10618;BME280;5356;43.526;26.534;2023-03-14T04:34:46;99320.72;;;3.48;61.95
10618;BME280;5356;43.526;26.534;2023-03-14T04:37:11;99305.06;;;3.54;61.83
10618;BME280;5356;43.526;26.534;2023-03-14T04:39:37;99306.81;;;3.62;61.68
10618;BME280;5356;43.526;26.534;2023-03-14T04:42:02;99302.06;;;3.66;61.42
10618;BME280;5356;43.526;26.534;2023-03-14T04:44:28;99292.13;;;3.68;61.34
10618;BME280;5356;43.526;26.534;2023-03-14T04:46:53;99295.75;;;3.75;62.98
10618;BME280;5356;43.526;26.534;2023-03-14T04:49:19;99303.06;;;3.88;63.22
10618;BME280;5356;43.526;26.534;2023-03-14T04:51:44;99287.94;;;3.81;62.99
10618;BME280;5356;43.526;26.534;2023-03-14T04:54:10;99293.75;;;3.77;62.75
10618;BME280;5356;43.526;26.534;2023-03-14T04:56:35;99283.72;;;3.72;62.68
10618;BME280;5356;43.526;26.534;2023-03-14T04:59:02;99277.81;;;3.70;62.86
10618;BME280;5356;43.526;26.534;2023-03-14T05:01:28;99276.94;;;3.78;63.06
10618;BME280;5356;43.526;26.534;2023-03-14T05:03:53;99283.44;;;3.90;62.91
10618;BME280;5356;43.526;26.534;2023-03-14T05:06:19;99280.47;;;3.93;62.91
10618;BME280;5356;43.526;26.534;2023-03-14T05:08:44;99273.06;;;3.97;62.37
10618;BME280;5356;43.526;26.534;2023-03-14T05:11:10;99276.63;;;4.04;62.41
10618;BME280;5356;43.526;26.534;2023-03-14T05:13:36;99271.47;;;4.11;62.53
10618;BME280;5356;43.526;26.534;2023-03-14T05:16:07;99265.31;;;4.18;62.90
10618;BME280;5356;43.526;26.534;2023-03-14T05:18:33;99268.53;;;4.28;62.79
10618;BME280;5356;43.526;26.534;2023-03-14T05:20:59;99269.75;;;4.41;62.63
10618;BME280;5356;43.526;26.534;2023-03-14T05:23:24;99262.22;;;4.53;62.47
10618;BME280;5356;43.526;26.534;2023-03-14T05:25:50;99267.34;;;4.54;62.61
10618;BME280;5356;43.526;26.534;2023-03-14T05:28:15;99261.19;;;4.62;62.30
10618;BME280;5356;43.526;26.534;2023-03-14T05:30:41;99266.53;;;4.68;63.53
10618;BME280;5356;43.526;26.534;2023-03-14T05:33:06;99254.38;;;4.67;63.33
10618;BME280;5356;43.526;26.534;2023-03-14T05:35:33;99245.44;;;4.68;63.04
10618;BME280;5356;43.526;26.534;2023-03-14T05:37:59;99246.16;;;4.77;63.01
10618;BME280;5356;43.526;26.534;2023-03-14T05:40:25;99243.97;;;4.81;63.50
10618;BME280;5356;43.526;26.534;2023-03-14T05:42:50;99246.66;;;4.95;63.01
10618;BME280;5356;43.526;26.534;2023-03-14T05:45:16;99251.66;;;5.05;63.28
10618;BME280;5356;43.526;26.534;2023-03-14T05:47:41;99237.06;;;5.09;63.14
10618;BME280;5356;43.526;26.534;2023-03-14T05:50:07;99241.00;;;5.13;62.91
10618;BME280;5356;43.526;26.534;2023-03-14T05:52:33;99235.06;;;5.26;62.84
10618;BME280;5356;43.526;26.534;2023-03-14T05:54:58;99231.94;;;5.37;62.69
10618;BME280;5356;43.526;26.534;2023-03-14T05:57:24;99235.28;;;5.46;61.75
10618;BME280;5356;43.526;26.534;2023-03-14T05:59:49;99232.53;;;5.54;61.98
10618;BME280;5356;43.526;26.534;2023-03-14T06:02:15;99231.31;;;5.72;61.54
10618;BME280;5356;43.526;26.534;2023-03-14T06:04:40;99225.09;;;5.79;61.38
10618;BME280;5356;43.526;26.534;2023-03-14T06:07:06;99224.47;;;5.77;61.85
10618;BME280;5356;43.526;26.534;2023-03-14T06:09:31;99219.78;;;5.94;62.06
10618;BME280;5356;43.526;26.534;2023-03-14T06:11:56;99221.53;;;6.08;61.10
10618;BME280;5356;43.526;26.534;2023-03-14T06:14:22;99215.22;;;6.31;62.05
10618;BME280;5356;43.526;26.534;2023-03-14T06:16:47;99220.63;;;6.44;60.57
10618;BME280;5356;43.526;26.534;2023-03-14T06:19:14;99215.47;;;6.64;59.05
10618;BME280;5356;43.526;26.534;2023-03-14T06:21:40;99224.97;;;6.80;58.91
10618;BME280;5356;43.526;26.534;2023-03-14T06:24:05;99221.16;;;6.96;58.37
10618;BME280;5356;43.526;26.534;2023-03-14T06:26:31;99219.19;;;7.05;57.82
10618;BME280;5356;43.526;26.534;2023-03-14T06:28:56;99221.56;;;7.28;57.62
10618;BME280;5356;43.526;26.534;2023-03-14T06:31:22;99228.56;;;7.49;56.99
10618;BME280;5356;43.526;26.534;2023-03-14T06:33:47;99231.44;;;7.67;56.65
10618;BME280;5356;43.526;26.534;2023-03-14T06:36:13;99226.63;;;7.91;56.24
10618;BME280;5356;43.526;26.534;2023-03-14T06:38:38;99230.13;;;8.11;55.46
10618;BME280;5356;43.526;26.534;2023-03-14T06:41:05;99220.97;;;8.33;55.21
10618;BME280;5356;43.526;26.534;2023-03-14T06:43:30;99215.69;;;8.53;54.11
10618;BME280;5356;43.526;26.534;2023-03-14T06:45:56;99218.09;;;8.68;53.99
10618;BME280;5356;43.526;26.534;2023-03-14T06:48:21;99216.66;;;8.79;52.63
10618;BME280;5356;43.526;26.534;2023-03-14T06:50:50;99217.88;;;8.90;51.66
10618;BME280;5356;43.526;26.534;2023-03-14T06:53:15;99214.78;;;8.99;50.76
10618;BME280;5356;43.526;26.534;2023-03-14T06:55:41;99226.41;;;9.12;50.52
10618;BME280;5356;43.526;26.534;2023-03-14T06:58:08;99218.59;;;9.24;50.86
10618;BME280;5356;43.526;26.534;2023-03-14T07:00:34;99217.91;;;9.41;50.10
10618;BME280;5356;43.526;26.534;2023-03-14T07:03:00;99212.09;;;9.58;49.74
10618;BME280;5356;43.526;26.534;2023-03-14T07:05:26;99214.09;;;9.69;49.62
10618;BME280;5356;43.526;26.534;2023-03-14T07:07:51;99210.19;;;9.72;47.89
10618;BME280;5356;43.526;26.534;2023-03-14T07:10:17;99210.50;;;9.88;47.79
10618;BME280;5356;43.526;26.534;2023-03-14T07:12:42;99210.19;;;10.03;46.20
10618;BME280;5356;43.526;26.534;2023-03-14T07:15:08;99196.38;;;10.20;44.81
10618;BME280;5356;43.526;26.534;2023-03-14T07:17:34;99193.84;;;10.31;44.36
10618;BME280;5356;43.526;26.534;2023-03-14T07:19:59;99188.31;;;10.26;43.22
10618;BME280;5356;43.526;26.534;2023-03-14T07:22:26;99189.56;;;10.30;42.79
10618;BME280;5356;43.526;26.534;2023-03-14T07:24:51;99182.84;;;10.46;43.05
10618;BME280;5356;43.526;26.534;2023-03-14T07:27:17;99193.22;;;10.54;42.17
10618;BME280;5356;43.526;26.534;2023-03-14T07:29:42;99182.97;;;10.76;41.99
10618;BME280;5356;43.526;26.534;2023-03-14T07:32:08;99181.56;;;10.92;41.22
10618;BME280;5356;43.526;26.534;2023-03-14T07:34:33;99188.91;;;10.97;40.97
10618;BME280;5356;43.526;26.534;2023-03-14T07:36:59;99183.94;;;11.00;41.33
10618;BME280;5356;43.526;26.534;2023-03-14T07:39:24;99179.56;;;11.24;41.52
10618;BME280;5356;43.526;26.534;2023-03-14T07:41:50;99182.78;;;11.45;41.56
10618;BME280;5356;43.526;26.534;2023-03-14T07:44:15;99183.84;;;11.44;40.04
10618;BME280;5356;43.526;26.534;2023-03-14T07:46:41;99185.38;;;11.52;39.77
10618;BME280;5356;43.526;26.534;2023-03-14T07:49:07;99174.53;;;11.65;39.57
10618;BME280;5356;43.526;26.534;2023-03-14T07:51:32;99181.44;;;11.84;39.27
10618;BME280;5356;43.526;26.534;2023-03-14T07:53:57;99169.88;;;12.02;40.06
10618;BME280;5356;43.526;26.534;2023-03-14T07:56:23;99160.50;;;12.11;39.29
10618;BME280;5356;43.526;26.534;2023-03-14T07:58:48;99168.22;;;12.31;38.86
10618;BME280;5356;43.526;26.534;2023-03-14T08:01:14;99154.84;;;12.31;38.33
10618;BME280;5356;43.526;26.534;2023-03-14T08:03:39;99158.22;;;12.39;38.21
10618;BME280;5356;43.526;26.534;2023-03-14T08:06:05;99158.56;;;12.42;37.53
10618;BME280;5356;43.526;26.534;2023-03-14T08:08:31;99162.63;;;12.45;37.26
10618;BME280;5356;43.526;26.534;2023-03-14T08:11:02;99164.25;;;12.46;35.52
10618;BME280;5356;43.526;26.534;2023-03-14T08:13:28;99159.47;;;12.48;35.87
10618;BME280;5356;43.526;26.534;2023-03-14T08:15:53;99158.44;;;12.49;35.61
10618;BME280;5356;43.526;26.534;2023-03-14T08:18:19;99149.00;;;12.70;35.69
10618;BME280;5356;43.526;26.534;2023-03-14T08:20:44;99147.75;;;12.72;35.20
10618;BME280;5356;43.526;26.534;2023-03-14T08:23:10;99151.38;;;12.54;34.75
10618;BME280;5356;43.526;26.534;2023-03-14T08:25:37;99156.78;;;12.59;34.58
10618;BME280;5356;43.526;26.534;2023-03-14T08:28:03;99147.03;;;12.65;35.10
10618;BME280;5356;43.526;26.534;2023-03-14T08:30:29;99149.09;;;12.87;34.86
10618;BME280;5356;43.526;26.534;2023-03-14T08:32:56;99138.63;;;12.97;35.43
10618;BME280;5356;43.526;26.534;2023-03-14T08:35:23;99146.28;;;13.05;35.62
10618;BME280;5356;43.526;26.534;2023-03-14T08:37:49;99135.13;;;13.08;34.98
10618;BME280;5356;43.526;26.534;2023-03-14T08:40:14;99144.72;;;13.21;35.12
10618;BME280;5356;43.526;26.534;2023-03-14T08:42:40;99139.50;;;13.26;35.03
10618;BME280;5356;43.526;26.534;2023-03-14T08:45:07;99141.25;;;13.49;35.08
10618;BME280;5356;43.526;26.534;2023-03-14T08:47:33;99133.19;;;13.61;34.98
10618;BME280;5356;43.526;26.534;2023-03-14T08:49:59;99127.53;;;13.74;35.49
10618;BME280;5356;43.526;26.534;2023-03-14T08:52:24;99122.41;;;13.89;35.46
10618;BME280;5356;43.526;26.534;2023-03-14T08:54:49;99115.78;;;13.92;35.10
10618;BME280;5356;43.526;26.534;2023-03-14T08:57:15;99117.91;;;13.90;34.47
10618;BME280;5356;43.526;26.534;2023-03-14T08:59:40;99117.72;;;13.97;35.03
10618;BME280;5356;43.526;26.534;2023-03-14T09:02:08;99112.94;;;13.99;33.84
10618;BME280;5356;43.526;26.534;2023-03-14T09:04:34;99103.03;;;13.99;34.54
10618;BME280;5356;43.526;26.534;2023-03-14T09:06:59;99104.81;;;14.10;34.26
10618;BME280;5356;43.526;26.534;2023-03-14T09:09:25;99091.56;;;14.21;33.83
10618;BME280;5356;43.526;26.534;2023-03-14T09:11:53;99081.50;;;14.28;33.19
10618;BME280;5356;43.526;26.534;2023-03-14T09:14:19;99088.06;;;14.37;32.27
10618;BME280;5356;43.526;26.534;2023-03-14T09:16:44;99083.75;;;14.53;31.44
10618;BME280;5356;43.526;26.534;2023-03-14T09:19:10;99079.88;;;14.66;32.15
10618;BME280;5356;43.526;26.534;2023-03-14T09:21:36;99086.38;;;14.70;31.65
10618;BME280;5356;43.526;26.534;2023-03-14T09:24:02;99077.13;;;14.82;31.10
10618;BME280;5356;43.526;26.534;2023-03-14T09:26:28;99065.69;;;14.87;30.49
10618;BME280;5356;43.526;26.534;2023-03-14T09:28:53;99058.16;;;15.11;30.97
10618;BME280;5356;43.526;26.534;2023-03-14T09:31:20;99064.56;;;15.32;31.31
10618;BME280;5356;43.526;26.534;2023-03-14T09:33:45;99060.72;;;15.28;29.88
10618;BME280;5356;43.526;26.534;2023-03-14T09:36:11;99053.03;;;15.37;29.69
10618;BME280;5356;43.526;26.534;2023-03-14T09:38:37;99056.91;;;15.46;29.85
10618;BME280;5356;43.526;26.534;2023-03-14T09:41:06;99049.59;;;15.41;29.73
10618;BME280;5356;43.526;26.534;2023-03-14T09:43:37;99049.88;;;15.45;29.74
10618;BME280;5356;43.526;26.534;2023-03-14T09:46:04;99056.06;;;15.45;29.87
10618;BME280;5356;43.526;26.534;2023-03-14T09:48:32;99037.66;;;15.59;29.57
10618;BME280;5356;43.526;26.534;2023-03-14T09:51:01;99038.13;;;15.78;29.70
10618;BME280;5356;43.526;26.534;2023-03-14T09:53:36;99034.97;;;15.86;29.18
10618;BME280;5356;43.526;26.534;2023-03-14T09:56:02;99037.38;;;15.88;29.57
10618;BME280;5356;43.526;26.534;2023-03-14T09:58:29;99021.53;;;15.86;29.07
10618;BME280;5356;43.526;26.534;2023-03-14T10:00:56;99037.53;;;16.08;29.80
10618;BME280;5356;43.526;26.534;2023-03-14T10:03:32;99015.19;;;16.03;29.20
10618;BME280;5356;43.526;26.534;2023-03-14T10:05:58;99020.00;;;16.01;29.26
10618;BME280;5356;43.526;26.534;2023-03-14T10:08:24;99016.88;;;16.14;29.58
10618;BME280;5356;43.526;26.534;2023-03-14T10:10:50;99008.84;;;16.24;29.57
10618;BME280;5356;43.526;26.534;2023-03-14T10:13:18;99004.56;;;16.23;29.37
10618;BME280;5356;43.526;26.534;2023-03-14T10:18:28;98984.75;;;16.39;29.50
10618;BME280;5356;43.526;26.534;2023-03-14T10:21:21;98987.22;;;16.61;29.38
10618;BME280;5356;43.526;26.534;2023-03-14T10:23:51;98982.16;;;16.65;28.74
10618;BME280;5356;43.526;26.534;2023-03-14T10:26:18;98969.47;;;16.55;28.15
10618;BME280;5356;43.526;26.534;2023-03-14T10:28:52;98975.66;;;16.61;28.41
10618;BME280;5356;43.526;26.534;2023-03-14T10:31:17;98965.97;;;16.60;28.51
10618;BME280;5356;43.526;26.534;2023-03-14T10:33:57;98961.47;;;16.76;27.95
10618;BME280;5356;43.526;26.534;2023-03-14T10:36:26;98948.34;;;16.85;28.00
10618;BME280;5356;43.526;26.534;2023-03-14T10:41:48;98934.88;;;16.95;27.49
10618;BME280;5356;43.526;26.534;2023-03-14T10:44:23;98933.00;;;17.05;27.56
10618;BME280;5356;43.526;26.534;2023-03-14T10:47:00;98930.88;;;17.08;27.25
10618;BME280;5356;43.526;26.534;2023-03-14T10:49:35;98922.50;;;17.09;27.33
10618;BME280;5356;43.526;26.534;2023-03-14T10:52:25;98914.72;;;17.28;27.03
10618;BME280;5356;43.526;26.534;2023-03-14T10:55:02;98909.31;;;17.28;26.81
10618;BME280;5356;43.526;26.534;2023-03-14T10:57:28;98893.41;;;17.47;26.96
10618;BME280;5356;43.526;26.534;2023-03-14T10:59:55;98898.81;;;17.42;26.31
10618;BME280;5356;43.526;26.534;2023-03-14T11:02:39;98885.09;;;17.38;26.18
10618;BME280;5356;43.526;26.534;2023-03-14T11:05:31;98888.84;;;17.42;26.46
10618;BME280;5356;43.526;26.534;2023-03-14T11:08:08;98887.75;;;17.43;25.67
10618;BME280;5356;43.526;26.534;2023-03-14T11:10:37;98877.81;;;17.34;24.76
10618;BME280;5356;43.526;26.534;2023-03-14T11:21:13;98845.19;;;17.56;24.36
10618;BME280;5356;43.526;26.534;2023-03-14T11:31:46;98832.91;;;17.99;24.73
10618;BME280;5356;43.526;26.534;2023-03-14T11:34:17;98827.78;;;18.03;24.48
10618;BME280;5356;43.526;26.534;2023-03-14T11:36:53;98818.81;;;18.17;24.72
10618;BME280;5356;43.526;26.534;2023-03-14T11:39:21;98819.91;;;18.11;23.88
10618;BME280;5356;43.526;26.534;2023-03-14T11:41:52;98817.81;;;18.03;23.91
10618;BME280;5356;43.526;26.534;2023-03-14T11:47:02;98806.50;;;18.01;23.88
10618;BME280;5356;43.526;26.534;2023-03-14T11:52:09;98799.47;;;18.05;23.37
10618;BME280;5356;43.526;26.534;2023-03-14T11:57:19;98784.22;;;18.30;23.42
10618;BME280;5356;43.526;26.534;2023-03-14T12:02:46;98782.53;;;18.39;23.71
10618;BME280;5356;43.526;26.534;2023-03-14T12:08:29;98770.31;;;18.52;23.83
10618;BME280;5356;43.526;26.534;2023-03-14T12:13:57;98765.16;;;18.55;23.28
10618;BME280;5356;43.526;26.534;2023-03-14T12:18:54;98750.72;;;18.36;23.32
10618;BME280;5356;43.526;26.534;2023-03-14T12:21:44;98739.88;;;18.46;23.36
10618;BME280;5356;43.526;26.534;2023-03-14T12:24:18;98735.44;;;18.60;23.15
10618;BME280;5356;43.526;26.534;2023-03-14T12:27:00;98739.63;;;18.43;22.79
10618;BME280;5356;43.526;26.534;2023-03-14T12:29:26;98727.34;;;18.60;23.33
10618;BME280;5356;43.526;26.534;2023-03-14T12:34:52;98724.16;;;18.53;23.00
10618;BME280;5356;43.526;26.534;2023-03-14T12:37:42;98721.47;;;18.53;22.76
10618;BME280;5356;43.526;26.534;2023-03-14T12:40:29;98713.84;;;18.60;23.28
10618;BME280;5356;43.526;26.534;2023-03-14T12:43:00;98717.16;;;18.52;23.21
10618;BME280;5356;43.526;26.534;2023-03-14T12:45:34;98698.28;;;18.52;23.09
10618;BME280;5356;43.526;26.534;2023-03-14T12:50:46;98699.84;;;18.58;23.05
10618;BME280;5356;43.526;26.534;2023-03-14T13:01:24;98675.09;;;18.51;23.69
10618;BME280;5356;43.526;26.534;2023-03-14T13:04:01;98675.16;;;18.70;23.67
10618;BME280;5356;43.526;26.534;2023-03-14T13:12:11;98652.63;;;18.85;23.82
10618;BME280;5356;43.526;26.534;2023-03-14T13:14:44;98645.81;;;18.93;23.75
10618;BME280;5356;43.526;26.534;2023-03-14T13:17:11;98636.28;;;19.00;23.60
10618;BME280;5356;43.526;26.534;2023-03-14T13:19:37;98637.53;;;18.84;23.62
10618;BME280;5356;43.526;26.534;2023-03-14T13:22:16;98629.19;;;18.86;23.69
10618;BME280;5356;43.526;26.534;2023-03-14T13:24:42;98624.31;;;19.06;23.92
10618;BME280;5356;43.526;26.534;2023-03-14T13:27:17;98624.22;;;19.17;23.42
10618;BME280;5356;43.526;26.534;2023-03-14T13:29:44;98624.84;;;19.27;23.69
10618;BME280;5356;43.526;26.534;2023-03-14T13:32:20;98619.50;;;19.03;22.54
10618;BME280;5356;43.526;26.534;2023-03-14T13:34:46;98614.84;;;18.85;22.64
10618;BME280;5356;43.526;26.534;2023-03-14T13:37:19;98608.97;;;18.83;22.76
10618;BME280;5356;43.526;26.534;2023-03-14T13:39:53;98604.34;;;18.83;22.76
10618;BME280;5356;43.526;26.534;2023-03-14T13:42:21;98607.66;;;18.99;23.17
10618;BME280;5356;43.526;26.534;2023-03-14T13:44:51;98609.56;;;18.99;22.49
10618;BME280;5356;43.526;26.534;2023-03-14T13:47:18;98604.84;;;19.10;22.69
10618;BME280;5356;43.526;26.534;2023-03-14T13:49:45;98582.59;;;19.18;22.73
10618;BME280;5356;43.526;26.534;2023-03-14T13:54:53;98598.00;;;19.17;22.48
10618;BME280;5356;43.526;26.534;2023-03-14T13:57:19;98590.84;;;19.26;22.97
10618;BME280;5356;43.526;26.534;2023-03-14T14:00:04;98589.09;;;19.36;22.67
10618;BME280;5356;43.526;26.534;2023-03-14T14:02:34;98588.94;;;19.27;22.77
10618;BME280;5356;43.526;26.534;2023-03-14T14:05:01;98574.84;;;19.30;22.97
10618;BME280;5356;43.526;26.534;2023-03-14T14:07:27;98581.88;;;19.31;22.75
10618;BME280;5356;43.526;26.534;2023-03-14T14:09:54;98573.41;;;19.19;22.89
10618;BME280;5356;43.526;26.534;2023-03-14T14:12:27;98585.31;;;19.18;22.89
10618;BME280;5356;43.526;26.534;2023-03-14T14:15:06;98576.03;;;19.24;22.92
10618;BME280;5356;43.526;26.534;2023-03-14T14:17:38;98566.03;;;19.24;22.69
10618;BME280;5356;43.526;26.534;2023-03-14T14:20:08;98562.53;;;19.43;22.82
10618;BME280;5356;43.526;26.534;2023-03-14T14:22:37;98560.09;;;19.41;22.90
10618;BME280;5356;43.526;26.534;2023-03-14T14:25:03;98553.91;;;19.41;22.93
10618;BME280;5356;43.526;26.534;2023-03-14T14:27:35;98551.41;;;19.44;23.21
10618;BME280;5356;43.526;26.534;2023-03-14T14:32:49;98538.66;;;19.31;23.07